CES6549 ZSPD-ZSHC
Flight info
| Callsign | CES6549 |
|---|---|
| Flight time | 0h 41m |
| Altitude | 7900 |
| Route | AND B221 OKTUG |
| Aircraft | A20N/M-SDE2E3FGILRWXY/LB2 |
Departure
| Time | 2026-05-05 04:31 |
|---|---|
| Airport | Shanghai Pudong International Airport (ZSPD) |
Arrival
| Time | 2026-05-05 05:13 |
|---|---|
| Airport | Hangzhou Xiaoshan International Airport (ZSHC) |
| Time | Latitude | Longitude | Altitude | Speed | Heading |
|---|---|---|---|---|---|
| 2026-05-05 04:23 | 31.14097 | 121.80326 | 26 ft | 11 kts | 343° |
| 2026-05-05 04:24 | 31.14169 | 121.80301 | 26 ft | 10 kts | 342° |
| 2026-05-05 04:24 | 31.14237 | 121.80275 | 27 ft | 10 kts | 342° |
| 2026-05-05 04:24 | 31.14291 | 121.80297 | 27 ft | 8 kts | 58° |
| 2026-05-05 04:25 | 31.14372 | 121.80582 | 29 ft | 28 kts | 72° |
| 2026-05-05 04:25 | 31.14433 | 121.80802 | 29 ft | 28 kts | 70° |
| 2026-05-05 04:25 | 31.14489 | 121.81003 | 27 ft | 25 kts | 70° |
| 2026-05-05 04:25 | 31.14535 | 121.81170 | 27 ft | 16 kts | 72° |
| 2026-05-05 04:26 | 31.14570 | 121.81295 | 27 ft | 16 kts | 72° |
| 2026-05-05 04:26 | 31.14600 | 121.81403 | 28 ft | 0 kts | 71° |
| 2026-05-05 04:26 | 31.14630 | 121.81427 | 30 ft | 10 kts | 14° |
| 2026-05-05 04:26 | 31.14693 | 121.81409 | 28 ft | 11 kts | 342° |
| 2026-05-05 04:27 | 31.14785 | 121.81375 | 29 ft | 14 kts | 342° |
| 2026-05-05 04:27 | 31.14888 | 121.81336 | 26 ft | 23 kts | 342° |
| 2026-05-05 04:27 | 31.15061 | 121.81270 | 26 ft | 27 kts | 342° |
| 2026-05-05 04:27 | 31.15236 | 121.81203 | 28 ft | 26 kts | 341° |
| 2026-05-05 04:28 | 31.15410 | 121.81138 | 25 ft | 26 kts | 342° |
| 2026-05-05 04:28 | 31.15584 | 121.81073 | 26 ft | 26 kts | 342° |
| 2026-05-05 04:28 | 31.15737 | 121.81015 | 28 ft | 18 kts | 342° |
| 2026-05-05 04:28 | 31.15798 | 121.80992 | 25 ft | 4 kts | 345° |
| 2026-05-05 04:29 | 31.15823 | 121.80994 | 28 ft | 3 kts | 22° |
| 2026-05-05 04:29 | 31.15842 | 121.81030 | 25 ft | 6 kts | 68° |
| 2026-05-05 04:29 | 31.15858 | 121.81077 | 27 ft | 7 kts | 69° |
| 2026-05-05 04:29 | 31.15874 | 121.81130 | 25 ft | 7 kts | 73° |
| 2026-05-05 04:30 | 31.15870 | 121.81184 | 24 ft | 6 kts | 122° |
| 2026-05-05 04:30 | 31.15835 | 121.81205 | 25 ft | 6 kts | 163° |
| 2026-05-05 04:30 | 31.15797 | 121.81218 | 25 ft | 5 kts | 162° |
| 2026-05-05 04:30 | 31.15702 | 121.81255 | 24 ft | 36 kts | 161° |
| 2026-05-05 04:31 | 31.15235 | 121.81429 | 28 ft | 102 kts | 162° |
| 2026-05-05 04:31 | 31.14379 | 121.81750 | 41 ft | 153 kts | 163° |
| 2026-05-05 04:31 | 31.13375 | 121.82121 | 566 ft | 150 kts | 161° |
| 2026-05-05 04:31 | 31.12383 | 121.82565 | 1133 ft | 156 kts | 162° |
| 2026-05-05 04:32 | 31.11326 | 121.83050 | 1794 ft | 171 kts | 162° |
| 2026-05-05 04:32 | 31.10180 | 121.83579 | 2496 ft | 184 kts | 161° |
| 2026-05-05 04:32 | 31.08922 | 121.84206 | 3099 ft | 212 kts | 154° |
| 2026-05-05 04:32 | 31.07591 | 121.85182 | 3609 ft | 238 kts | 146° |
| 2026-05-05 04:33 | 31.06213 | 121.86374 | 4306 ft | 252 kts | 144° |
| 2026-05-05 04:33 | 31.04782 | 121.87604 | 5046 ft | 261 kts | 147° |
| 2026-05-05 04:33 | 31.03250 | 121.88740 | 5898 ft | 267 kts | 149° |
| 2026-05-05 04:33 | 31.01642 | 121.89867 | 6835 ft | 272 kts | 149° |
| 2026-05-05 04:34 | 30.99981 | 121.90943 | 7494 ft | 276 kts | 157° |
| 2026-05-05 04:34 | 30.98113 | 121.91432 | 7828 ft | 277 kts | 182° |
| 2026-05-05 04:34 | 30.96278 | 121.90877 | 7900 ft | 277 kts | 211° |
| 2026-05-05 04:34 | 30.94825 | 121.89424 | 7896 ft | 277 kts | 229° |
| 2026-05-05 04:35 | 30.93554 | 121.87741 | 7900 ft | 278 kts | 226° |
| 2026-05-05 04:35 | 30.92058 | 121.86321 | 7904 ft | 278 kts | 215° |
| 2026-05-05 04:35 | 30.90442 | 121.85083 | 7893 ft | 278 kts | 213° |
| 2026-05-05 04:35 | 30.88803 | 121.83887 | 7889 ft | 278 kts | 212° |
| 2026-05-05 04:36 | 30.87160 | 121.82698 | 7895 ft | 278 kts | 212° |
| 2026-05-05 04:36 | 30.85517 | 121.81513 | 7885 ft | 278 kts | 212° |
| 2026-05-05 04:36 | 30.83875 | 121.80326 | 7888 ft | 278 kts | 212° |
| 2026-05-05 04:36 | 30.82232 | 121.79140 | 7890 ft | 278 kts | 212° |
| 2026-05-05 04:37 | 30.80587 | 121.77952 | 7885 ft | 278 kts | 212° |
| 2026-05-05 04:37 | 30.78943 | 121.76764 | 7892 ft | 279 kts | 212° |
| 2026-05-05 04:37 | 30.77296 | 121.75576 | 7894 ft | 279 kts | 212° |
| 2026-05-05 04:37 | 30.75647 | 121.74388 | 7901 ft | 279 kts | 212° |
| 2026-05-05 04:38 | 30.73999 | 121.73200 | 7891 ft | 279 kts | 212° |
| 2026-05-05 04:38 | 30.72348 | 121.72011 | 7883 ft | 279 kts | 212° |
| 2026-05-05 04:38 | 30.70697 | 121.70823 | 7890 ft | 279 kts | 212° |
| 2026-05-05 04:38 | 30.69048 | 121.69636 | 7882 ft | 279 kts | 212° |
| 2026-05-05 04:39 | 30.67421 | 121.68464 | 7884 ft | 279 kts | 212° |
| 2026-05-05 04:39 | 30.65773 | 121.67278 | 7887 ft | 279 kts | 212° |
| 2026-05-05 04:39 | 30.64123 | 121.66091 | 7884 ft | 279 kts | 212° |
| 2026-05-05 04:39 | 30.62474 | 121.64906 | 7888 ft | 279 kts | 212° |
| 2026-05-05 04:40 | 30.60823 | 121.63719 | 7881 ft | 279 kts | 212° |
| 2026-05-05 04:40 | 30.59177 | 121.62537 | 7877 ft | 279 kts | 212° |
| 2026-05-05 04:40 | 30.57526 | 121.61351 | 7885 ft | 279 kts | 212° |
| 2026-05-05 04:40 | 30.55876 | 121.60167 | 7874 ft | 279 kts | 212° |
| 2026-05-05 04:41 | 30.54223 | 121.58982 | 7871 ft | 279 kts | 212° |
| 2026-05-05 04:41 | 30.52570 | 121.57796 | 7874 ft | 279 kts | 212° |
| 2026-05-05 04:41 | 30.50919 | 121.56613 | 7874 ft | 279 kts | 212° |
| 2026-05-05 04:41 | 30.49267 | 121.55429 | 7875 ft | 279 kts | 212° |
| 2026-05-05 04:42 | 30.47615 | 121.54245 | 7879 ft | 279 kts | 212° |
| 2026-05-05 04:42 | 30.45961 | 121.53061 | 7872 ft | 279 kts | 212° |
| 2026-05-05 04:42 | 30.44311 | 121.51880 | 7876 ft | 279 kts | 211° |
| 2026-05-05 04:42 | 30.42670 | 121.50679 | 7877 ft | 279 kts | 215° |
| 2026-05-05 04:43 | 30.41264 | 121.49147 | 7870 ft | 278 kts | 231° |
| 2026-05-05 04:43 | 30.40127 | 121.47331 | 7872 ft | 279 kts | 235° |
| 2026-05-05 04:43 | 30.39049 | 121.45458 | 7822 ft | 280 kts | 236° |
| 2026-05-05 04:43 | 30.38037 | 121.43683 | 7588 ft | 281 kts | 236° |
| 2026-05-05 04:44 | 30.36959 | 121.41799 | 7345 ft | 280 kts | 236° |
| 2026-05-05 04:44 | 30.35879 | 121.39920 | 7100 ft | 280 kts | 235° |
| 2026-05-05 04:44 | 30.34797 | 121.38044 | 6900 ft | 280 kts | 235° |
| 2026-05-05 04:44 | 30.33716 | 121.36173 | 6877 ft | 280 kts | 235° |
| 2026-05-05 04:45 | 30.32634 | 121.34303 | 6867 ft | 280 kts | 235° |
| 2026-05-05 04:45 | 30.31551 | 121.32433 | 6647 ft | 279 kts | 235° |
| 2026-05-05 04:45 | 30.30471 | 121.30569 | 6403 ft | 279 kts | 235° |
| 2026-05-05 04:45 | 30.29389 | 121.28704 | 6173 ft | 279 kts | 234° |
| 2026-05-05 04:46 | 30.28309 | 121.26844 | 5905 ft | 277 kts | 235° |
| 2026-05-05 04:46 | 30.27238 | 121.25000 | 5647 ft | 275 kts | 234° |
| 2026-05-05 04:46 | 30.26173 | 121.23165 | 5409 ft | 274 kts | 234° |
| 2026-05-05 04:46 | 30.25082 | 121.21369 | 5155 ft | 272 kts | 232° |
| 2026-05-05 04:47 | 30.23968 | 121.19608 | 4942 ft | 270 kts | 231° |
| 2026-05-05 04:47 | 30.22854 | 121.17864 | 4885 ft | 269 kts | 231° |
| 2026-05-05 04:47 | 30.21739 | 121.16123 | 4889 ft | 269 kts | 231° |
| 2026-05-05 04:47 | 30.20624 | 121.14382 | 4884 ft | 269 kts | 231° |
| 2026-05-05 04:48 | 30.19510 | 121.12643 | 4884 ft | 269 kts | 231° |
| 2026-05-05 04:48 | 30.18397 | 121.10908 | 4881 ft | 268 kts | 231° |
| 2026-05-05 04:48 | 30.17285 | 121.09173 | 4888 ft | 269 kts | 231° |
| 2026-05-05 04:48 | 30.16170 | 121.07435 | 4891 ft | 269 kts | 230° |
| 2026-05-05 04:49 | 30.15046 | 121.05709 | 4907 ft | 269 kts | 230° |
| 2026-05-05 04:49 | 30.13919 | 121.03978 | 4917 ft | 270 kts | 230° |
| 2026-05-05 04:49 | 30.12793 | 121.02244 | 4915 ft | 270 kts | 230° |
| 2026-05-05 04:49 | 30.11742 | 121.00618 | 4922 ft | 270 kts | 230° |
| 2026-05-05 04:50 | 30.10644 | 120.98897 | 4916 ft | 270 kts | 232° |
| 2026-05-05 04:50 | 30.09759 | 120.96976 | 4911 ft | 273 kts | 248° |
| 2026-05-05 04:50 | 30.09447 | 120.94808 | 4921 ft | 277 kts | 269° |
| 2026-05-05 04:50 | 30.09788 | 120.92620 | 4924 ft | 278 kts | 284° |
| 2026-05-05 04:51 | 30.10406 | 120.90502 | 4909 ft | 278 kts | 288° |
| 2026-05-05 04:51 | 30.11068 | 120.88398 | 4888 ft | 279 kts | 288° |
| 2026-05-05 04:51 | 30.11729 | 120.86295 | 4894 ft | 279 kts | 288° |
| 2026-05-05 04:51 | 30.12384 | 120.84191 | 4892 ft | 278 kts | 287° |
| 2026-05-05 04:52 | 30.13034 | 120.82088 | 4882 ft | 277 kts | 287° |
| 2026-05-05 04:52 | 30.13662 | 120.80053 | 4878 ft | 261 kts | 287° |
| 2026-05-05 04:52 | 30.14251 | 120.78139 | 4871 ft | 245 kts | 287° |
| 2026-05-05 04:52 | 30.14829 | 120.76340 | 4797 ft | 236 kts | 292° |
| 2026-05-05 04:53 | 30.15770 | 120.74805 | 4672 ft | 236 kts | 316° |
| 2026-05-05 04:53 | 30.17062 | 120.73641 | 4561 ft | 234 kts | 323° |
| 2026-05-05 04:53 | 30.18411 | 120.72589 | 4479 ft | 234 kts | 325° |
| 2026-05-05 04:53 | 30.19772 | 120.71545 | 4349 ft | 235 kts | 325° |
| 2026-05-05 04:54 | 30.21113 | 120.70513 | 4193 ft | 227 kts | 324° |
| 2026-05-05 04:54 | 30.22432 | 120.69490 | 3930 ft | 233 kts | 324° |
| 2026-05-05 04:54 | 30.23780 | 120.68439 | 3549 ft | 234 kts | 323° |
| 2026-05-05 04:54 | 30.25141 | 120.67371 | 3072 ft | 239 kts | 323° |
| 2026-05-05 04:55 | 30.26522 | 120.66285 | 2598 ft | 240 kts | 323° |
| 2026-05-05 04:55 | 30.27908 | 120.65199 | 2194 ft | 241 kts | 323° |
| 2026-05-05 04:55 | 30.29265 | 120.64113 | 1996 ft | 231 kts | 320° |
| 2026-05-05 04:55 | 30.30283 | 120.62756 | 1970 ft | 221 kts | 292° |
| 2026-05-05 04:56 | 30.30544 | 120.61658 | 1956 ft | 206 kts | 270° |
| 2026-05-05 04:56 | 30.30136 | 120.59673 | 1968 ft | 184 kts | 242° |
| 2026-05-05 04:56 | 30.29764 | 120.58790 | 1968 ft | 184 kts | 239° |
| 2026-05-05 04:56 | 30.29172 | 120.57479 | 1970 ft | 178 kts | 239° |
| 2026-05-05 04:57 | 30.28636 | 120.56292 | 1957 ft | 153 kts | 240° |
| 2026-05-05 04:57 | 30.28182 | 120.55275 | 1968 ft | 136 kts | 239° |
| 2026-05-05 04:57 | 30.27752 | 120.54312 | 1966 ft | 134 kts | 239° |
| 2026-05-05 04:57 | 30.27184 | 120.53045 | 1972 ft | 134 kts | 239° |
| 2026-05-05 04:58 | 30.26899 | 120.52396 | 1968 ft | 134 kts | 239° |
| 2026-05-05 04:58 | 30.26472 | 120.51438 | 1961 ft | 135 kts | 239° |
| 2026-05-05 04:58 | 30.26046 | 120.50467 | 1986 ft | 135 kts | 239° |
| 2026-05-05 04:58 | 30.25624 | 120.49498 | 1971 ft | 134 kts | 239° |
| 2026-05-05 04:59 | 30.25204 | 120.48534 | 1972 ft | 135 kts | 239° |
| 2026-05-05 04:59 | 30.24785 | 120.47571 | 1970 ft | 133 kts | 239° |
| 2026-05-05 04:59 | 30.24381 | 120.46621 | 1970 ft | 134 kts | 239° |
| 2026-05-05 04:59 | 30.23974 | 120.45645 | 1969 ft | 134 kts | 240° |
| 2026-05-05 05:00 | 30.23563 | 120.44679 | 1988 ft | 131 kts | 239° |
| 2026-05-05 05:00 | 30.23127 | 120.43736 | 2154 ft | 133 kts | 236° |
| 2026-05-05 05:00 | 30.22667 | 120.42735 | 2473 ft | 152 kts | 238° |
| 2026-05-05 05:00 | 30.22174 | 120.41563 | 2914 ft | 173 kts | 241° |
| 2026-05-05 05:01 | 30.21647 | 120.40214 | 3474 ft | 192 kts | 241° |
| 2026-05-05 05:01 | 30.21044 | 120.38774 | 4169 ft | 208 kts | 239° |
| 2026-05-05 05:01 | 30.20323 | 120.37251 | 4380 ft | 221 kts | 229° |
| 2026-05-05 05:01 | 30.19119 | 120.36255 | 4236 ft | 216 kts | 199° |
| 2026-05-05 05:02 | 30.17650 | 120.35958 | 4297 ft | 214 kts | 174° |
| 2026-05-05 05:02 | 30.16255 | 120.36446 | 4344 ft | 211 kts | 147° |
| 2026-05-05 05:02 | 30.15250 | 120.37671 | 4344 ft | 216 kts | 118° |
| 2026-05-05 05:02 | 30.14910 | 120.39359 | 4113 ft | 219 kts | 93° |
| 2026-05-05 05:03 | 30.15052 | 120.41110 | 3980 ft | 220 kts | 82° |
| 2026-05-05 05:03 | 30.15507 | 120.42842 | 3987 ft | 239 kts | 70° |
| 2026-05-05 05:03 | 30.16203 | 120.44698 | 3987 ft | 260 kts | 66° |
| 2026-05-05 05:03 | 30.16982 | 120.46611 | 3969 ft | 265 kts | 65° |
| 2026-05-05 05:04 | 30.17780 | 120.48530 | 3971 ft | 265 kts | 65° |
| 2026-05-05 05:04 | 30.18579 | 120.50445 | 3959 ft | 264 kts | 65° |
| 2026-05-05 05:04 | 30.19375 | 120.52350 | 3975 ft | 264 kts | 65° |
| 2026-05-05 05:04 | 30.20175 | 120.54260 | 3968 ft | 264 kts | 65° |
| 2026-05-05 05:05 | 30.20973 | 120.56169 | 3970 ft | 264 kts | 65° |
| 2026-05-05 05:05 | 30.21772 | 120.58081 | 3970 ft | 264 kts | 65° |
| 2026-05-05 05:05 | 30.22648 | 120.59949 | 3971 ft | 264 kts | 60° |
| 2026-05-05 05:05 | 30.23544 | 120.61793 | 3862 ft | 260 kts | 63° |
| 2026-05-05 05:06 | 30.24392 | 120.63638 | 3480 ft | 260 kts | 63° |
| 2026-05-05 05:06 | 30.25350 | 120.65422 | 3073 ft | 263 kts | 57° |
| 2026-05-05 05:06 | 30.26546 | 120.67020 | 2649 ft | 266 kts | 37° |
| 2026-05-05 05:06 | 30.28221 | 120.67830 | 2182 ft | 267 kts | 7° |
| 2026-05-05 05:07 | 30.30015 | 120.67569 | 1911 ft | 258 kts | 334° |
| 2026-05-05 05:07 | 30.31420 | 120.66378 | 1886 ft | 240 kts | 307° |
| 2026-05-05 05:07 | 30.32127 | 120.64810 | 1875 ft | 209 kts | 276° |
| 2026-05-05 05:07 | 30.32020 | 120.63270 | 1858 ft | 180 kts | 250° |
| 2026-05-05 05:08 | 30.31505 | 120.62068 | 1872 ft | 150 kts | 228° |
| 2026-05-05 05:08 | 30.30890 | 120.61209 | 1852 ft | 134 kts | 229° |
| 2026-05-05 05:08 | 30.30518 | 120.60223 | 1860 ft | 137 kts | 257° |
| 2026-05-05 05:08 | 30.30441 | 120.59129 | 1871 ft | 137 kts | 263° |
| 2026-05-05 05:09 | 30.30389 | 120.58032 | 1887 ft | 136 kts | 262° |
| 2026-05-05 05:09 | 30.30332 | 120.56942 | 1884 ft | 136 kts | 263° |
| 2026-05-05 05:09 | 30.30206 | 120.55865 | 1867 ft | 134 kts | 251° |
| 2026-05-05 05:09 | 30.29886 | 120.54864 | 1887 ft | 133 kts | 242° |
| 2026-05-05 05:10 | 30.29484 | 120.53903 | 1858 ft | 133 kts | 240° |
| 2026-05-05 05:10 | 30.29079 | 120.52937 | 1738 ft | 133 kts | 239° |
| 2026-05-05 05:10 | 30.28663 | 120.51979 | 1551 ft | 134 kts | 240° |
| 2026-05-05 05:10 | 30.28241 | 120.51007 | 1373 ft | 136 kts | 239° |
| 2026-05-05 05:11 | 30.27817 | 120.50035 | 1205 ft | 135 kts | 239° |
| 2026-05-05 05:11 | 30.27383 | 120.49081 | 973 ft | 133 kts | 237° |
| 2026-05-05 05:11 | 30.26987 | 120.48100 | 863 ft | 137 kts | 242° |
| 2026-05-05 05:11 | 30.26570 | 120.47119 | 661 ft | 134 kts | 243° |
| 2026-05-05 05:12 | 30.26145 | 120.46169 | 506 ft | 135 kts | 240° |
| 2026-05-05 05:12 | 30.25728 | 120.45200 | 306 ft | 132 kts | 244° |
| 2026-05-05 05:12 | 30.25320 | 120.44236 | 172 ft | 134 kts | 239° |
| 2026-05-05 05:12 | 30.24911 | 120.43278 | 60 ft | 126 kts | 237° |
| 2026-05-05 05:13 | 30.24586 | 120.42565 | 54 ft | 75 kts | 244° |
| 2026-05-05 05:13 | 30.24433 | 120.42211 | 52 ft | 28 kts | 245° |
| 2026-05-05 05:13 | 30.24356 | 120.42039 | 52 ft | 11 kts | 240° |
| 2026-05-05 05:13 | 30.24316 | 120.41971 | 57 ft | 10 kts | 236° |
| 2026-05-05 05:14 | 30.24274 | 120.41917 | 58 ft | 8 kts | 217° |
| 2026-05-05 05:14 | 30.24226 | 120.41875 | 58 ft | 9 kts | 217° |